Big Bear Station Historical Data
Daily Summary for September 6, 2017 Units:  English    Metric   Both
« Previous Day
Next Day »
Daily Weekly Monthly Yearly Custom
  High: Low: Average:
Temperature: 82.6 °F 54.9 °F 67.1 °F
Dew Point: 52.8 °F 44.2 °F 48.3 °F
Humidity: 75 % 28 % 54 %
Wind Speed: 8.9 mph 0.0 mph 1.3 mph
Wind Gust: -999.0 mph - -
Wind:- - WSW
Pressure: 30.33 in 30.27 in -
Precipitation: 0.00 in    
Historical Graphs
 
 
Tabular Data for September 6, 2017
Time Temperature Dew Point Pressure Wind Wind Speed Wind Gust Humidity Rainfall Rate (Hourly)
00:08 57.2 °F 45.1 °F 30.32 in Calm   -999.0 mph 64 % 0 in
01:24 55.6 °F 46.3 °F 30.32 in Calm   -999.0 mph 71 % 0 in
01:39 55.4 °F 44.2 °F 30.32 in Calm   -999.0 mph 66 % 0 in
01:54 55.0 °F 45.0 °F 30.33 in Calm   -999.0 mph 69 % 0 in
02:09 54.9 °F 46.0 °F 30.33 in Calm   -999.0 mph 72 % 0 in
02:25 55.2 °F 47.4 °F 30.32 in Calm   -999.0 mph 75 % 0 in
02:40 55.0 °F 47.2 °F 30.32 in Calm   -999.0 mph 75 % 0 in
02:55 55.8 °F 47.6 °F 30.31 in Calm   -999.0 mph 74 % 0 in
03:10 56.3 °F 47.8 °F 30.31 in Calm   -999.0 mph 73 % 0 in
03:25 56.8 °F 44.8 °F 30.31 in Calm   -999.0 mph 64 % 0 in
03:41 56.7 °F 45.5 °F 30.31 in Calm   -999.0 mph 66 % 0 in
03:56 57.0 °F 46.9 °F 30.31 in Calm   -999.0 mph 69 % 0 in
04:11 57.6 °F 49.4 °F 30.31 in Calm   -999.0 mph 74 % 0 in
04:26 57.9 °F 49.7 °F 30.31 in Calm   -999.0 mph 74 % 0 in
04:42 59.5 °F 49.3 °F 30.31 in SE 1.7 mph -999.0 mph 69 % 0 in
04:57 59.5 °F 49.7 °F 30.30 in Calm   -999.0 mph 70 % 0 in
05:12 60.1 °F 49.1 °F 30.30 in South 1.7 mph -999.0 mph 67 % 0 in
05:27 59.7 °F 47.9 °F 30.31 in Calm   -999.0 mph 65 % 0 in
05:42 59.7 °F 48.3 °F 30.30 in Calm   -999.0 mph 66 % 0 in
05:58 59.4 °F 48.4 °F 30.30 in Calm   -999.0 mph 67 % 0 in
06:13 58.8 °F 47.9 °F 30.31 in Calm   -999.0 mph 67 % 0 in
06:28 58.3 °F 47.8 °F 30.31 in Calm   -999.0 mph 68 % 0 in
06:43 58.3 °F 48.2 °F 30.31 in Calm   -999.0 mph 69 % 0 in
06:58 58.5 °F 48.0 °F 30.31 in Calm   -999.0 mph 68 % 0 in
07:14 58.8 °F 49.4 °F 30.31 in Calm   -999.0 mph 71 % 0 in
07:29 59.5 °F 50.1 °F 30.31 in Calm   -999.0 mph 71 % 0 in
07:44 59.9 °F 50.5 °F 30.31 in Calm   -999.0 mph 71 % 0 in
07:59 61.3 °F 51.8 °F 30.31 in Calm   -999.0 mph 71 % 0 in
08:14 62.6 °F 51.5 °F 30.31 in Calm   -999.0 mph 67 % 0 in
08:30 64.4 °F 52.8 °F 30.31 in Calm   -999.0 mph 66 % 0 in
08:45 66.7 °F 50.5 °F 30.31 in Calm   -999.0 mph 56 % 0 in
09:00 68.0 °F 50.7 °F 30.31 in NW 2.7 mph -999.0 mph 54 % 0 in
09:16 68.2 °F 47.2 °F 30.31 in Calm   -999.0 mph 47 % 0 in
09:31 69.3 °F 47.6 °F 30.32 in NNW 1.1 mph -999.0 mph 46 % 0 in
09:46 71.1 °F 48.7 °F 30.32 in NW 2.7 mph -999.0 mph 45 % 0 in
10:01 72.5 °F 49.4 °F 30.32 in WSW 1.7 mph -999.0 mph 44 % 0 in
10:16 73.2 °F 49.4 °F 30.32 in NW 3.2 mph -999.0 mph 43 % 0 in
10:32 74.8 °F 48.9 °F 30.32 in South 1.7 mph -999.0 mph 40 % 0 in
10:47 76.8 °F 47.8 °F 30.32 in NW 4.2 mph -999.0 mph 36 % 0 in
11:02 76.5 °F 49.7 °F 30.32 in West 2.7 mph -999.0 mph 39 % 0 in
11:17 78.6 °F 47.1 °F 30.32 in SSW 3.2 mph -999.0 mph 33 % 0 in
11:32 79.3 °F 48.5 °F 30.32 in Calm   -999.0 mph 34 % 0 in
12:03 80.4 °F 49.5 °F 30.31 in SW 3.2 mph -999.0 mph 34 % 0 in
12:18 81.1 °F 47.6 °F 30.31 in South 1.1 mph -999.0 mph 31 % 0 in
12:34 81.7 °F 48.1 °F 30.31 in West 6.3 mph -999.0 mph 31 % 0 in
12:49 81.3 °F 46.0 °F 30.31 in SSE 3.7 mph -999.0 mph 29 % 0 in
13:04 81.5 °F 47.1 °F 30.31 in NNW 5.3 mph -999.0 mph 30 % 0 in
13:20 81.1 °F 45.8 °F 30.31 in WSW 2.7 mph -999.0 mph 29 % 0 in
13:35 81.7 °F 47.3 °F 30.31 in NNW 4.7 mph -999.0 mph 30 % 0 in
13:50 81.7 °F 47.3 °F 30.30 in NNW 5.3 mph -999.0 mph 30 % 0 in
14:05 82.6 °F 47.1 °F 30.30 in NNE 4.7 mph -999.0 mph 29 % 0 in
14:21 82.2 °F 45.9 °F 30.29 in NNW 8.9 mph -999.0 mph 28 % 0 in
14:36 80.6 °F 45.4 °F 30.29 in SSW 3.2 mph -999.0 mph 29 % 0 in
14:52 81.3 °F 46.9 °F 30.28 in West 2.7 mph -999.0 mph 30 % 0 in
15:07 80.2 °F 46.0 °F 30.28 in South 2.7 mph -999.0 mph 30 % 0 in
15:22 80.2 °F 46.0 °F 30.28 in North 3.7 mph -999.0 mph 30 % 0 in
15:38 80.6 °F 47.2 °F 30.28 in WNW 3.7 mph -999.0 mph 31 % 0 in
15:53 78.3 °F 47.6 °F 30.28 in SSW 2.7 mph -999.0 mph 34 % 0 in
16:08 77.2 °F 47.4 °F 30.28 in WSW 3.7 mph -999.0 mph 35 % 0 in
16:24 75.4 °F 47.3 °F 30.27 in South 3.2 mph -999.0 mph 37 % 0 in
16:39 75.7 °F 48.3 °F 30.27 in WNW 1.1 mph -999.0 mph 38 % 0 in
16:54 77.0 °F 48.7 °F 30.27 in West 4.7 mph -999.0 mph 37 % 0 in
17:09 80.1 °F 50.0 °F 30.27 in NNW 3.2 mph -999.0 mph 35 % 0 in
17:24 81.3 °F 51.8 °F 30.27 in NW 1.1 mph -999.0 mph 36 % 0 in
17:40 78.1 °F 51.1 °F 30.27 in NNE 2.7 mph -999.0 mph 39 % 0 in
17:55 74.5 °F 50.5 °F 30.27 in South 2.2 mph -999.0 mph 43 % 0 in
18:10 71.6 °F 50.3 °F 30.27 in NE 2.2 mph -999.0 mph 47 % 0 in
18:25 71.1 °F 51.0 °F 30.27 in SSW 1.1 mph -999.0 mph 49 % 0 in
18:40 69.6 °F 51.2 °F 30.27 in Calm   -999.0 mph 52 % 0 in
18:56 68.4 °F 49.6 °F 30.27 in Calm   -999.0 mph 51 % 0 in
19:11 67.3 °F 49.1 °F 30.28 in Calm   -999.0 mph 52 % 0 in
19:26 66.2 °F 48.6 °F 30.28 in Calm   -999.0 mph 53 % 0 in
19:41 65.5 °F 48.4 °F 30.28 in Calm   -999.0 mph 54 % 0 in
19:56 64.8 °F 48.3 °F 30.28 in Calm   -999.0 mph 55 % 0 in
20:27 62.6 °F 48.1 °F 30.29 in Calm   -999.0 mph 59 % 0 in
20:42 61.9 °F 48.3 °F 30.29 in Calm   -999.0 mph 61 % 0 in
20:57 61.3 °F 47.7 °F 30.29 in Calm   -999.0 mph 61 % 0 in
21:13 60.6 °F 48.4 °F 30.29 in Calm   -999.0 mph 64 % 0 in
21:28 60.3 °F 50.1 °F 30.29 in Calm   -999.0 mph 69 % 0 in
21:43 59.9 °F 50.9 °F 30.29 in Calm   -999.0 mph 72 % 0 in
21:58 59.2 °F 48.2 °F 30.29 in Calm   -999.0 mph 67 % 0 in
22:13 58.8 °F 48.7 °F 30.30 in Calm   -999.0 mph 69 % 0 in
22:29 58.5 °F 49.9 °F 30.29 in Calm   -999.0 mph 73 % 0 in
22:44 57.9 °F 49.3 °F 30.29 in Calm   -999.0 mph 73 % 0 in
22:59 57.6 °F 49.0 °F 30.30 in Calm   -999.0 mph 73 % 0 in
23:14 57.2 °F 48.3 °F 30.30 in Calm   -999.0 mph 72 % 0 in
23:29 56.8 °F 48.2 °F 30.29 in Calm   -999.0 mph 73 % 0 in
23:45 56.3 °F 46.3 °F 30.29 in SSE 1.7 mph -999.0 mph 69 % 0 in
Big Bear CA Weather
Compliments of Weather Underground - 1.5 mb